sensor_id;sensor_type;location;lat;lon;timestamp;temperature;humidity
75321;DHT22;68337;52.196;5.660;2024-01-10T00:02:20;-3.60;99.90
75321;DHT22;68337;52.196;5.660;2024-01-10T00:04:46;-3.30;99.90
75321;DHT22;68337;52.196;5.660;2024-01-10T00:07:12;-3.80;99.90
75321;DHT22;68337;52.196;5.660;2024-01-10T00:09:37;-3.80;99.90
75321;DHT22;68337;52.196;5.660;2024-01-10T00:12:03;-3.40;99.90
75321;DHT22;68337;52.196;5.660;2024-01-10T00:14:29;-3.90;99.90
75321;DHT22;68337;52.196;5.660;2024-01-10T00:16:55;-3.70;99.90
75321;DHT22;68337;52.196;5.660;2024-01-10T00:19:21;-3.90;99.90
75321;DHT22;68337;52.196;5.660;2024-01-10T00:21:46;-3.30;99.90
75321;DHT22;68337;52.196;5.660;2024-01-10T00:24:13;-3.50;99.90
75321;DHT22;68337;52.196;5.660;2024-01-10T00:26:40;-3.70;99.90
75321;DHT22;68337;52.196;5.660;2024-01-10T00:29:06;-3.90;99.90
75321;DHT22;68337;52.196;5.660;2024-01-10T00:31:33;-3.80;99.90
75321;DHT22;68337;52.196;5.660;2024-01-10T00:33:59;-3.60;99.90
75321;DHT22;68337;52.196;5.660;2024-01-10T00:36:26;-3.80;99.90
75321;DHT22;68337;52.196;5.660;2024-01-10T00:38:52;-3.20;99.90
75321;DHT22;68337;52.196;5.660;2024-01-10T00:41:17;-3.40;99.90
75321;DHT22;68337;52.196;5.660;2024-01-10T00:43:45;-3.50;99.90
75321;DHT22;68337;52.196;5.660;2024-01-10T00:46:11;-3.40;99.90
75321;DHT22;68337;52.196;5.660;2024-01-10T00:48:36;-3.30;99.90
75321;DHT22;68337;52.196;5.660;2024-01-10T00:51:02;-3.60;99.90
75321;DHT22;68337;52.196;5.660;2024-01-10T00:53:36;-3.60;99.90
75321;DHT22;68337;52.196;5.660;2024-01-10T00:56:04;-3.70;99.90
75321;DHT22;68337;52.196;5.660;2024-01-10T00:58:30;-3.80;99.90
75321;DHT22;68337;52.196;5.660;2024-01-10T01:00:56;-3.50;99.90
75321;DHT22;68337;52.196;5.660;2024-01-10T01:03:22;-3.90;99.90
75321;DHT22;68337;52.196;5.660;2024-01-10T01:05:47;-3.30;99.90
75321;DHT22;68337;52.196;5.660;2024-01-10T01:08:13;-3.40;99.90
75321;DHT22;68337;52.196;5.660;2024-01-10T01:10:38;-2.90;99.90
75321;DHT22;68337;52.196;5.660;2024-01-10T01:13:04;-3.40;99.90
75321;DHT22;68337;52.196;5.660;2024-01-10T01:15:30;-3.60;99.90
75321;DHT22;68337;52.196;5.660;2024-01-10T01:17:55;-3.40;99.90
75321;DHT22;68337;52.196;5.660;2024-01-10T01:20:21;-3.50;99.90
75321;DHT22;68337;52.196;5.660;2024-01-10T01:22:47;-3.60;99.90
75321;DHT22;68337;52.196;5.660;2024-01-10T01:25:12;-3.60;99.90
75321;DHT22;68337;52.196;5.660;2024-01-10T01:27:38;-3.70;99.90
75321;DHT22;68337;52.196;5.660;2024-01-10T01:30:04;-3.50;99.90
75321;DHT22;68337;52.196;5.660;2024-01-10T01:32:30;-3.90;99.90
75321;DHT22;68337;52.196;5.660;2024-01-10T01:34:55;-3.70;99.90
75321;DHT22;68337;52.196;5.660;2024-01-10T01:37:21;-3.50;99.90
75321;DHT22;68337;52.196;5.660;2024-01-10T01:39:47;-3.60;99.90
75321;DHT22;68337;52.196;5.660;2024-01-10T01:42:12;-3.80;99.90
75321;DHT22;68337;52.196;5.660;2024-01-10T01:44:38;-3.60;99.90
75321;DHT22;68337;52.196;5.660;2024-01-10T01:47:04;-3.90;99.90
75321;DHT22;68337;52.196;5.660;2024-01-10T01:49:29;-3.60;99.90
75321;DHT22;68337;52.196;5.660;2024-01-10T01:51:56;-3.90;99.90
75321;DHT22;68337;52.196;5.660;2024-01-10T01:54:22;-3.90;99.90
75321;DHT22;68337;52.196;5.660;2024-01-10T01:56:49;-3.70;99.90
75321;DHT22;68337;52.196;5.660;2024-01-10T01:59:15;-3.80;99.90
75321;DHT22;68337;52.196;5.660;2024-01-10T02:01:41;-3.70;99.90
75321;DHT22;68337;52.196;5.660;2024-01-10T02:04:07;-3.60;99.90
75321;DHT22;68337;52.196;5.660;2024-01-10T02:06:33;-4.30;99.90
75321;DHT22;68337;52.196;5.660;2024-01-10T02:08:58;-3.70;99.90
75321;DHT22;68337;52.196;5.660;2024-01-10T02:11:25;-3.70;99.90
75321;DHT22;68337;52.196;5.660;2024-01-10T02:13:52;-4.10;99.90
75321;DHT22;68337;52.196;5.660;2024-01-10T02:16:25;-3.90;99.90
75321;DHT22;68337;52.196;5.660;2024-01-10T02:18:50;-4.10;99.90
75321;DHT22;68337;52.196;5.660;2024-01-10T02:21:20;-3.70;99.90
75321;DHT22;68337;52.196;5.660;2024-01-10T02:23:47;-4.10;99.90
75321;DHT22;68337;52.196;5.660;2024-01-10T02:26:14;-3.60;99.90
75321;DHT22;68337;52.196;5.660;2024-01-10T02:28:40;-3.60;99.90
75321;DHT22;68337;52.196;5.660;2024-01-10T02:31:06;-4.20;99.90
75321;DHT22;68337;52.196;5.660;2024-01-10T02:33:32;-3.90;99.90
75321;DHT22;68337;52.196;5.660;2024-01-10T02:36:20;-3.60;99.90
75321;DHT22;68337;52.196;5.660;2024-01-10T02:38:45;-4.40;99.90
75321;DHT22;68337;52.196;5.660;2024-01-10T02:41:13;-4.20;99.90
75321;DHT22;68337;52.196;5.660;2024-01-10T02:43:39;-4.30;99.90
75321;DHT22;68337;52.196;5.660;2024-01-10T02:46:05;-4.30;99.90
75321;DHT22;68337;52.196;5.660;2024-01-10T02:48:31;-4.30;99.90
75321;DHT22;68337;52.196;5.660;2024-01-10T02:50:56;-3.80;99.90
75321;DHT22;68337;52.196;5.660;2024-01-10T02:53:22;-4.10;99.90
75321;DHT22;68337;52.196;5.660;2024-01-10T02:55:50;-4.20;99.90
75321;DHT22;68337;52.196;5.660;2024-01-10T02:58:16;-4.10;99.90
75321;DHT22;68337;52.196;5.660;2024-01-10T03:00:42;-4.30;99.90
75321;DHT22;68337;52.196;5.660;2024-01-10T03:03:07;-4.50;99.90
75321;DHT22;68337;52.196;5.660;2024-01-10T03:05:33;-4.40;99.90
75321;DHT22;68337;52.196;5.660;2024-01-10T03:07:59;-4.50;99.90
75321;DHT22;68337;52.196;5.660;2024-01-10T03:10:27;-4.50;99.90
75321;DHT22;68337;52.196;5.660;2024-01-10T03:12:55;-4.40;99.90
75321;DHT22;68337;52.196;5.660;2024-01-10T03:15:21;-4.50;99.90
75321;DHT22;68337;52.196;5.660;2024-01-10T03:17:47;-4.00;99.90
75321;DHT22;68337;52.196;5.660;2024-01-10T03:20:13;-4.20;99.90
75321;DHT22;68337;52.196;5.660;2024-01-10T03:22:39;-4.60;99.90
75321;DHT22;68337;52.196;5.660;2024-01-10T03:25:04;-4.20;99.90
75321;DHT22;68337;52.196;5.660;2024-01-10T03:27:30;-4.60;99.90
75321;DHT22;68337;52.196;5.660;2024-01-10T03:29:56;-4.50;99.90
75321;DHT22;68337;52.196;5.660;2024-01-10T03:32:22;-4.60;99.90
75321;DHT22;68337;52.196;5.660;2024-01-10T03:34:49;-4.40;99.90
75321;DHT22;68337;52.196;5.660;2024-01-10T03:37:17;-4.50;99.90
75321;DHT22;68337;52.196;5.660;2024-01-10T03:39:42;-4.20;99.90
75321;DHT22;68337;52.196;5.660;2024-01-10T03:42:08;-4.50;99.90
75321;DHT22;68337;52.196;5.660;2024-01-10T03:44:34;-4.50;99.90
75321;DHT22;68337;52.196;5.660;2024-01-10T03:47:00;-4.50;99.90
75321;DHT22;68337;52.196;5.660;2024-01-10T03:49:26;-4.60;99.90
75321;DHT22;68337;52.196;5.660;2024-01-10T03:51:53;-4.40;99.90
75321;DHT22;68337;52.196;5.660;2024-01-10T03:54:19;-4.60;99.90
75321;DHT22;68337;52.196;5.660;2024-01-10T03:56:44;-4.50;99.90
75321;DHT22;68337;52.196;5.660;2024-01-10T03:59:10;-4.50;99.90
75321;DHT22;68337;52.196;5.660;2024-01-10T04:01:36;-4.60;99.90
75321;DHT22;68337;52.196;5.660;2024-01-10T04:04:04;-4.60;99.90
75321;DHT22;68337;52.196;5.660;2024-01-10T04:06:30;-4.60;99.90
75321;DHT22;68337;52.196;5.660;2024-01-10T04:08:56;-4.50;99.90
75321;DHT22;68337;52.196;5.660;2024-01-10T04:11:21;-4.50;99.90
75321;DHT22;68337;52.196;5.660;2024-01-10T04:13:47;-4.40;99.90
75321;DHT22;68337;52.196;5.660;2024-01-10T04:16:13;-4.40;99.90
75321;DHT22;68337;52.196;5.660;2024-01-10T04:18:38;-4.20;99.90
75321;DHT22;68337;52.196;5.660;2024-01-10T04:21:04;-4.20;99.90
75321;DHT22;68337;52.196;5.660;2024-01-10T04:23:30;-4.30;99.90
75321;DHT22;68337;52.196;5.660;2024-01-10T04:25:56;-4.40;99.90
75321;DHT22;68337;52.196;5.660;2024-01-10T04:28:22;-4.10;99.90
75321;DHT22;68337;52.196;5.660;2024-01-10T04:30:47;-4.60;99.90
75321;DHT22;68337;52.196;5.660;2024-01-10T04:33:13;-4.60;99.90
75321;DHT22;68337;52.196;5.660;2024-01-10T04:35:39;-4.50;99.90
75321;DHT22;68337;52.196;5.660;2024-01-10T04:38:04;-4.60;99.90
75321;DHT22;68337;52.196;5.660;2024-01-10T04:40:30;-4.70;99.90
75321;DHT22;68337;52.196;5.660;2024-01-10T04:42:55;-4.60;99.90
75321;DHT22;68337;52.196;5.660;2024-01-10T04:45:21;-4.40;99.90
75321;DHT22;68337;52.196;5.660;2024-01-10T04:47:47;-6.50;99.90
75321;DHT22;68337;52.196;5.660;2024-01-10T04:50:12;-4.40;99.90
75321;DHT22;68337;52.196;5.660;2024-01-10T04:52:38;-4.70;99.90
75321;DHT22;68337;52.196;5.660;2024-01-10T04:55:04;-4.60;99.90
75321;DHT22;68337;52.196;5.660;2024-01-10T04:57:31;-4.70;99.90
75321;DHT22;68337;52.196;5.660;2024-01-10T04:59:57;-4.40;99.90
75321;DHT22;68337;52.196;5.660;2024-01-10T05:02:23;-4.70;99.90
75321;DHT22;68337;52.196;5.660;2024-01-10T05:04:49;-4.60;99.90
75321;DHT22;68337;52.196;5.660;2024-01-10T05:07:14;-4.80;99.90
75321;DHT22;68337;52.196;5.660;2024-01-10T05:09:40;-4.60;99.90
75321;DHT22;68337;52.196;5.660;2024-01-10T05:12:06;-4.80;99.90
75321;DHT22;68337;52.196;5.660;2024-01-10T05:14:32;-4.80;99.90
75321;DHT22;68337;52.196;5.660;2024-01-10T05:16:57;-4.60;99.90
75321;DHT22;68337;52.196;5.660;2024-01-10T05:19:23;-4.60;99.90
75321;DHT22;68337;52.196;5.660;2024-01-10T05:21:49;-4.60;99.90
75321;DHT22;68337;52.196;5.660;2024-01-10T05:24:14;-4.40;99.90
75321;DHT22;68337;52.196;5.660;2024-01-10T05:26:40;-4.70;99.90
75321;DHT22;68337;52.196;5.660;2024-01-10T05:29:06;-4.70;99.90
75321;DHT22;68337;52.196;5.660;2024-01-10T05:31:31;-4.30;99.90
75321;DHT22;68337;52.196;5.660;2024-01-10T05:33:57;-4.60;99.90
75321;DHT22;68337;52.196;5.660;2024-01-10T05:36:23;-4.50;99.90
75321;DHT22;68337;52.196;5.660;2024-01-10T05:38:49;-4.20;99.90
75321;DHT22;68337;52.196;5.660;2024-01-10T05:41:15;-4.40;99.90
75321;DHT22;68337;52.196;5.660;2024-01-10T05:43:41;-4.50;99.90
75321;DHT22;68337;52.196;5.660;2024-01-10T05:46:06;-4.60;99.90
75321;DHT22;68337;52.196;5.660;2024-01-10T05:48:32;-4.60;99.90
75321;DHT22;68337;52.196;5.660;2024-01-10T05:50:58;-4.40;99.90
75321;DHT22;68337;52.196;5.660;2024-01-10T05:53:24;-4.60;99.90
75321;DHT22;68337;52.196;5.660;2024-01-10T05:55:50;-4.30;99.90
75321;DHT22;68337;52.196;5.660;2024-01-10T05:58:16;-4.50;99.90
75321;DHT22;68337;52.196;5.660;2024-01-10T06:00:42;-4.50;99.90
75321;DHT22;68337;52.196;5.660;2024-01-10T06:03:08;-4.80;99.90
75321;DHT22;68337;52.196;5.660;2024-01-10T06:05:34;-4.60;99.90
75321;DHT22;68337;52.196;5.660;2024-01-10T06:08:00;-4.70;99.90
75321;DHT22;68337;52.196;5.660;2024-01-10T06:10:27;-4.30;99.90
75321;DHT22;68337;52.196;5.660;2024-01-10T06:12:52;-4.50;99.90
75321;DHT22;68337;52.196;5.660;2024-01-10T06:15:18;-4.50;99.90
75321;DHT22;68337;52.196;5.660;2024-01-10T06:17:44;-4.40;99.90
75321;DHT22;68337;52.196;5.660;2024-01-10T06:20:10;-4.50;99.90
75321;DHT22;68337;52.196;5.660;2024-01-10T06:22:35;-4.80;99.90
75321;DHT22;68337;52.196;5.660;2024-01-10T06:25:01;-4.20;99.90
75321;DHT22;68337;52.196;5.660;2024-01-10T06:27:27;-4.40;99.90
75321;DHT22;68337;52.196;5.660;2024-01-10T06:29:53;-4.50;99.90
75321;DHT22;68337;52.196;5.660;2024-01-10T06:32:19;-4.60;99.90
75321;DHT22;68337;52.196;5.660;2024-01-10T06:34:45;-4.80;99.90
75321;DHT22;68337;52.196;5.660;2024-01-10T06:37:10;-4.70;99.90
75321;DHT22;68337;52.196;5.660;2024-01-10T06:39:36;-4.30;99.90
75321;DHT22;68337;52.196;5.660;2024-01-10T06:42:02;-4.70;99.90
75321;DHT22;68337;52.196;5.660;2024-01-10T06:44:31;-4.90;99.90
75321;DHT22;68337;52.196;5.660;2024-01-10T06:46:57;-4.50;99.90
75321;DHT22;68337;52.196;5.660;2024-01-10T06:49:23;-4.80;99.90
75321;DHT22;68337;52.196;5.660;2024-01-10T06:51:49;-4.40;99.90
75321;DHT22;68337;52.196;5.660;2024-01-10T06:54:14;-4.40;99.90
75321;DHT22;68337;52.196;5.660;2024-01-10T06:56:40;-4.60;99.90
75321;DHT22;68337;52.196;5.660;2024-01-10T06:59:07;-4.50;99.90
75321;DHT22;68337;52.196;5.660;2024-01-10T07:01:32;-4.90;99.90
75321;DHT22;68337;52.196;5.660;2024-01-10T07:03:58;-4.90;99.90
75321;DHT22;68337;52.196;5.660;2024-01-10T07:06:24;-4.90;99.90
75321;DHT22;68337;52.196;5.660;2024-01-10T07:08:50;-4.90;99.90
75321;DHT22;68337;52.196;5.660;2024-01-10T07:11:17;-4.80;99.90
75321;DHT22;68337;52.196;5.660;2024-01-10T07:13:43;-4.60;99.90
75321;DHT22;68337;52.196;5.660;2024-01-10T07:16:09;-4.80;99.90
75321;DHT22;68337;52.196;5.660;2024-01-10T07:18:35;-5.00;99.90
75321;DHT22;68337;52.196;5.660;2024-01-10T07:21:01;-4.80;99.90
75321;DHT22;68337;52.196;5.660;2024-01-10T07:23:27;-4.90;99.90
75321;DHT22;68337;52.196;5.660;2024-01-10T07:25:53;-5.20;99.90
75321;DHT22;68337;52.196;5.660;2024-01-10T07:28:22;-5.30;99.90
75321;DHT22;68337;52.196;5.660;2024-01-10T07:30:47;-5.20;99.90
75321;DHT22;68337;52.196;5.660;2024-01-10T07:33:13;-4.90;99.90
75321;DHT22;68337;52.196;5.660;2024-01-10T07:35:39;-5.00;99.90
75321;DHT22;68337;52.196;5.660;2024-01-10T07:38:07;-5.20;99.90
75321;DHT22;68337;52.196;5.660;2024-01-10T07:40:34;-5.10;99.90
75321;DHT22;68337;52.196;5.660;2024-01-10T07:42:59;-4.90;99.90
75321;DHT22;68337;52.196;5.660;2024-01-10T07:45:26;-4.90;99.90
75321;DHT22;68337;52.196;5.660;2024-01-10T07:47:51;-5.10;99.90
75321;DHT22;68337;52.196;5.660;2024-01-10T07:50:17;-5.00;99.90
75321;DHT22;68337;52.196;5.660;2024-01-10T07:52:45;-5.10;99.90
75321;DHT22;68337;52.196;5.660;2024-01-10T07:55:13;-4.50;99.90
75321;DHT22;68337;52.196;5.660;2024-01-10T07:57:39;-4.90;99.90
75321;DHT22;68337;52.196;5.660;2024-01-10T08:00:08;-4.70;99.90
75321;DHT22;68337;52.196;5.660;2024-01-10T08:02:37;-4.80;99.90
75321;DHT22;68337;52.196;5.660;2024-01-10T08:05:03;-4.50;99.90
75321;DHT22;68337;52.196;5.660;2024-01-10T08:07:31;-4.80;99.90
75321;DHT22;68337;52.196;5.660;2024-01-10T08:09:59;-4.90;99.90
75321;DHT22;68337;52.196;5.660;2024-01-10T08:12:25;-4.80;99.90
75321;DHT22;68337;52.196;5.660;2024-01-10T08:14:51;-4.80;99.90
75321;DHT22;68337;52.196;5.660;2024-01-10T08:17:16;-4.60;99.90
75321;DHT22;68337;52.196;5.660;2024-01-10T08:19:42;-4.30;99.90
75321;DHT22;68337;52.196;5.660;2024-01-10T08:22:08;-4.30;99.90
75321;DHT22;68337;52.196;5.660;2024-01-10T08:24:34;-4.10;99.90
75321;DHT22;68337;52.196;5.660;2024-01-10T08:26:59;-4.00;99.90
75321;DHT22;68337;52.196;5.660;2024-01-10T08:29:25;-3.80;99.90
75321;DHT22;68337;52.196;5.660;2024-01-10T08:31:56;-3.70;99.90
75321;DHT22;68337;52.196;5.660;2024-01-10T08:34:22;-4.00;99.90
75321;DHT22;68337;52.196;5.660;2024-01-10T08:36:51;-3.50;99.90
75321;DHT22;68337;52.196;5.660;2024-01-10T08:39:17;-3.50;99.90
75321;DHT22;68337;52.196;5.660;2024-01-10T08:41:43;-3.50;99.90
75321;DHT22;68337;52.196;5.660;2024-01-10T08:44:10;-3.60;99.90
75321;DHT22;68337;52.196;5.660;2024-01-10T08:46:36;-3.40;99.90
75321;DHT22;68337;52.196;5.660;2024-01-10T08:49:01;-3.70;99.90
75321;DHT22;68337;52.196;5.660;2024-01-10T08:51:28;-3.60;99.90
75321;DHT22;68337;52.196;5.660;2024-01-10T08:53:54;-3.30;99.90
75321;DHT22;68337;52.196;5.660;2024-01-10T08:56:19;-3.40;99.90
75321;DHT22;68337;52.196;5.660;2024-01-10T08:58:45;-3.20;99.90
75321;DHT22;68337;52.196;5.660;2024-01-10T09:01:11;-3.50;99.90
75321;DHT22;68337;52.196;5.660;2024-01-10T09:03:37;-3.90;99.90
75321;DHT22;68337;52.196;5.660;2024-01-10T09:06:06;-3.10;99.90
75321;DHT22;68337;52.196;5.660;2024-01-10T09:08:34;-3.30;99.90
75321;DHT22;68337;52.196;5.660;2024-01-10T09:10:59;-3.40;99.90
75321;DHT22;68337;52.196;5.660;2024-01-10T09:13:25;-3.50;99.90
75321;DHT22;68337;52.196;5.660;2024-01-10T09:15:52;-2.90;99.90
75321;DHT22;68337;52.196;5.660;2024-01-10T09:18:18;-3.00;99.90
75321;DHT22;68337;52.196;5.660;2024-01-10T09:20:44;-3.00;99.90
75321;DHT22;68337;52.196;5.660;2024-01-10T09:23:09;-2.80;99.90
75321;DHT22;68337;52.196;5.660;2024-01-10T09:25:36;-2.60;99.90
75321;DHT22;68337;52.196;5.660;2024-01-10T09:28:03;-2.50;99.90
75321;DHT22;68337;52.196;5.660;2024-01-10T09:30:29;-2.80;99.90
75321;DHT22;68337;52.196;5.660;2024-01-10T09:32:55;-2.90;99.90
75321;DHT22;68337;52.196;5.660;2024-01-10T09:35:22;-2.80;99.90
75321;DHT22;68337;52.196;5.660;2024-01-10T09:37:48;-2.30;99.90
75321;DHT22;68337;52.196;5.660;2024-01-10T09:40:15;-2.20;99.90
75321;DHT22;68337;52.196;5.660;2024-01-10T09:42:43;-1.90;99.90
75321;DHT22;68337;52.196;5.660;2024-01-10T09:45:10;-1.90;99.90
75321;DHT22;68337;52.196;5.660;2024-01-10T09:47:40;-1.90;99.90
75321;DHT22;68337;52.196;5.660;2024-01-10T09:50:09;-2.00;99.90
75321;DHT22;68337;52.196;5.660;2024-01-10T09:52:50;-2.10;99.90
75321;DHT22;68337;52.196;5.660;2024-01-10T09:55:16;-1.90;99.90
75321;DHT22;68337;52.196;5.660;2024-01-10T09:57:42;-1.80;99.90
75321;DHT22;68337;52.196;5.660;2024-01-10T10:00:11;-1.80;99.90
75321;DHT22;68337;52.196;5.660;2024-01-10T10:02:38;-1.90;99.90
75321;DHT22;68337;52.196;5.660;2024-01-10T10:05:13;-1.90;99.90
75321;DHT22;68337;52.196;5.660;2024-01-10T10:07:48;-1.90;99.90
75321;DHT22;68337;52.196;5.660;2024-01-10T10:10:15;-1.60;99.90
75321;DHT22;68337;52.196;5.660;2024-01-10T10:12:45;-1.70;99.90
75321;DHT22;68337;52.196;5.660;2024-01-10T10:15:16;-1.70;99.90
75321;DHT22;68337;52.196;5.660;2024-01-10T10:17:44;-1.60;99.90
75321;DHT22;68337;52.196;5.660;2024-01-10T10:20:24;-1.40;99.90
75321;DHT22;68337;52.196;5.660;2024-01-10T10:22:58;-1.20;99.90
75321;DHT22;68337;52.196;5.660;2024-01-10T10:25:30;-1.60;99.90
75321;DHT22;68337;52.196;5.660;2024-01-10T10:27:57;-1.20;99.90
75321;DHT22;68337;52.196;5.660;2024-01-10T10:30:23;-1.00;99.90
75321;DHT22;68337;52.196;5.660;2024-01-10T10:32:49;-1.00;99.90
75321;DHT22;68337;52.196;5.660;2024-01-10T10:35:15;-1.20;99.90
75321;DHT22;68337;52.196;5.660;2024-01-10T10:37:41;-1.00;99.90
75321;DHT22;68337;52.196;5.660;2024-01-10T10:40:08;-0.90;99.90
75321;DHT22;68337;52.196;5.660;2024-01-10T10:42:35;-0.80;99.90
75321;DHT22;68337;52.196;5.660;2024-01-10T10:45:04;-0.60;99.90
75321;DHT22;68337;52.196;5.660;2024-01-10T10:47:36;-0.80;99.90
75321;DHT22;68337;52.196;5.660;2024-01-10T10:50:03;-0.70;99.90
75321;DHT22;68337;52.196;5.660;2024-01-10T10:52:30;-0.70;99.90
75321;DHT22;68337;52.196;5.660;2024-01-10T10:54:58;-0.60;99.90
75321;DHT22;68337;52.196;5.660;2024-01-10T10:57:27;-0.50;99.90
75321;DHT22;68337;52.196;5.660;2024-01-10T10:59:55;-0.50;99.90
75321;DHT22;68337;52.196;5.660;2024-01-10T11:02:22;-0.40;99.90
75321;DHT22;68337;52.196;5.660;2024-01-10T11:04:49;-0.50;99.90
75321;DHT22;68337;52.196;5.660;2024-01-10T11:07:15;-0.30;99.90
75321;DHT22;68337;52.196;5.660;2024-01-10T11:09:42;-0.30;99.90
75321;DHT22;68337;52.196;5.660;2024-01-10T11:21:30;-0.30;99.90
75321;DHT22;68337;52.196;5.660;2024-01-10T11:24:01;-0.20;99.90
75321;DHT22;68337;52.196;5.660;2024-01-10T11:26:28;-0.20;99.90
75321;DHT22;68337;52.196;5.660;2024-01-10T11:28:54;-0.30;99.90
75321;DHT22;68337;52.196;5.660;2024-01-10T11:31:32;-0.10;99.90
75321;DHT22;68337;52.196;5.660;2024-01-10T11:34:01;-0.20;99.90
75321;DHT22;68337;52.196;5.660;2024-01-10T11:36:30;-0.10;99.90
75321;DHT22;68337;52.196;5.660;2024-01-10T11:38:58;-0.20;99.90
75321;DHT22;68337;52.196;5.660;2024-01-10T11:41:28;0.00;99.90
75321;DHT22;68337;52.196;5.660;2024-01-10T11:46:38;-0.10;99.90
75321;DHT22;68337;52.196;5.660;2024-01-10T11:49:06;-0.10;99.90
75321;DHT22;68337;52.196;5.660;2024-01-10T11:51:32;0.00;99.90
75321;DHT22;68337;52.196;5.660;2024-01-10T11:53:59;0.10;99.90
75321;DHT22;68337;52.196;5.660;2024-01-10T11:56:44;0.00;99.90
75321;DHT22;68337;52.196;5.660;2024-01-10T11:59:13;0.10;99.90
75321;DHT22;68337;52.196;5.660;2024-01-10T12:02:11;0.10;99.90
75321;DHT22;68337;52.196;5.660;2024-01-10T12:04:48;0.30;99.90
75321;DHT22;68337;52.196;5.660;2024-01-10T12:07:15;0.40;99.90
75321;DHT22;68337;52.196;5.660;2024-01-10T12:09:40;0.40;99.90
75321;DHT22;68337;52.196;5.660;2024-01-10T12:12:13;0.40;99.90
75321;DHT22;68337;52.196;5.660;2024-01-10T12:14:50;0.40;99.90
75321;DHT22;68337;52.196;5.660;2024-01-10T12:17:16;0.40;99.90
75321;DHT22;68337;52.196;5.660;2024-01-10T12:19:44;0.60;99.90
75321;DHT22;68337;52.196;5.660;2024-01-10T12:22:10;0.70;99.90
75321;DHT22;68337;52.196;5.660;2024-01-10T12:24:43;0.70;99.90
75321;DHT22;68337;52.196;5.660;2024-01-10T12:27:11;0.70;99.90
75321;DHT22;68337;52.196;5.660;2024-01-10T12:29:37;0.70;99.90
75321;DHT22;68337;52.196;5.660;2024-01-10T12:32:03;1.00;99.90
75321;DHT22;68337;52.196;5.660;2024-01-10T12:34:29;0.90;99.90
75321;DHT22;68337;52.196;5.660;2024-01-10T12:36:55;1.00;99.90
75321;DHT22;68337;52.196;5.660;2024-01-10T12:39:21;1.00;99.90
75321;DHT22;68337;52.196;5.660;2024-01-10T12:41:49;1.00;99.90
75321;DHT22;68337;52.196;5.660;2024-01-10T12:44:15;0.90;99.90
75321;DHT22;68337;52.196;5.660;2024-01-10T12:46:51;0.80;99.90
75321;DHT22;68337;52.196;5.660;2024-01-10T12:49:17;0.90;99.90
75321;DHT22;68337;52.196;5.660;2024-01-10T12:51:43;1.00;99.90
75321;DHT22;68337;52.196;5.660;2024-01-10T12:54:09;1.10;99.90
75321;DHT22;68337;52.196;5.660;2024-01-10T12:56:34;1.10;99.90
75321;DHT22;68337;52.196;5.660;2024-01-10T12:59:00;1.10;99.90
75321;DHT22;68337;52.196;5.660;2024-01-10T13:01:26;1.00;99.90
75321;DHT22;68337;52.196;5.660;2024-01-10T13:03:52;1.00;99.90
75321;DHT22;68337;52.196;5.660;2024-01-10T13:06:18;1.20;99.90
75321;DHT22;68337;52.196;5.660;2024-01-10T13:08:45;1.10;99.90
75321;DHT22;68337;52.196;5.660;2024-01-10T13:11:12;1.10;99.90
75321;DHT22;68337;52.196;5.660;2024-01-10T13:13:39;1.20;99.90
75321;DHT22;68337;52.196;5.660;2024-01-10T13:16:05;1.30;99.90
75321;DHT22;68337;52.196;5.660;2024-01-10T13:18:31;1.30;99.90
75321;DHT22;68337;52.196;5.660;2024-01-10T13:20:57;1.30;99.90
75321;DHT22;68337;52.196;5.660;2024-01-10T13:23:23;1.30;99.90
75321;DHT22;68337;52.196;5.660;2024-01-10T13:25:52;1.30;99.90
75321;DHT22;68337;52.196;5.660;2024-01-10T13:28:20;1.30;99.90
75321;DHT22;68337;52.196;5.660;2024-01-10T13:30:46;1.30;99.90
75321;DHT22;68337;52.196;5.660;2024-01-10T13:33:12;1.20;99.90
75321;DHT22;68337;52.196;5.660;2024-01-10T13:35:38;1.30;99.90
75321;DHT22;68337;52.196;5.660;2024-01-10T13:38:05;1.20;99.90
75321;DHT22;68337;52.196;5.660;2024-01-10T13:40:31;1.20;99.90
75321;DHT22;68337;52.196;5.660;2024-01-10T13:42:59;1.10;99.90
75321;DHT22;68337;52.196;5.660;2024-01-10T13:45:28;1.20;99.90
75321;DHT22;68337;52.196;5.660;2024-01-10T13:47:53;1.00;99.90
75321;DHT22;68337;52.196;5.660;2024-01-10T13:50:19;1.10;99.90
75321;DHT22;68337;52.196;5.660;2024-01-10T13:52:45;1.10;99.90
75321;DHT22;68337;52.196;5.660;2024-01-10T13:55:11;1.10;99.90
75321;DHT22;68337;52.196;5.660;2024-01-10T13:57:37;1.10;99.90
75321;DHT22;68337;52.196;5.660;2024-01-10T14:00:03;1.10;99.90
75321;DHT22;68337;52.196;5.660;2024-01-10T14:02:29;1.10;99.90
75321;DHT22;68337;52.196;5.660;2024-01-10T14:04:55;1.10;99.90
75321;DHT22;68337;52.196;5.660;2024-01-10T14:07:23;1.10;99.90
75321;DHT22;68337;52.196;5.660;2024-01-10T14:09:50;1.10;99.90
75321;DHT22;68337;52.196;5.660;2024-01-10T14:12:15;1.20;99.90
75321;DHT22;68337;52.196;5.660;2024-01-10T14:14:44;1.30;99.90
75321;DHT22;68337;52.196;5.660;2024-01-10T14:17:10;1.10;99.90
75321;DHT22;68337;52.196;5.660;2024-01-10T14:19:36;1.10;99.90
75321;DHT22;68337;52.196;5.660;2024-01-10T14:22:02;1.00;99.90
75321;DHT22;68337;52.196;5.660;2024-01-10T14:24:29;1.00;99.90
75321;DHT22;68337;52.196;5.660;2024-01-10T14:26:57;0.90;99.90
75321;DHT22;68337;52.196;5.660;2024-01-10T14:29:24;0.90;99.90
75321;DHT22;68337;52.196;5.660;2024-01-10T14:31:53;0.80;99.90
75321;DHT22;68337;52.196;5.660;2024-01-10T14:34:20;0.70;99.90
75321;DHT22;68337;52.196;5.660;2024-01-10T14:36:46;0.80;99.90
75321;DHT22;68337;52.196;5.660;2024-01-10T14:39:12;0.80;99.90
75321;DHT22;68337;52.196;5.660;2024-01-10T14:41:39;0.70;99.90
75321;DHT22;68337;52.196;5.660;2024-01-10T14:44:05;0.70;99.90
75321;DHT22;68337;52.196;5.660;2024-01-10T14:46:32;0.60;99.90
75321;DHT22;68337;52.196;5.660;2024-01-10T14:48:58;0.50;99.90
75321;DHT22;68337;52.196;5.660;2024-01-10T14:51:24;0.50;99.90
75321;DHT22;68337;52.196;5.660;2024-01-10T14:53:51;0.50;99.90
75321;DHT22;68337;52.196;5.660;2024-01-10T14:56:17;0.50;99.90
75321;DHT22;68337;52.196;5.660;2024-01-10T14:58:44;0.40;99.90
75321;DHT22;68337;52.196;5.660;2024-01-10T15:01:12;0.30;99.90
75321;DHT22;68337;52.196;5.660;2024-01-10T15:03:39;0.40;99.90
75321;DHT22;68337;52.196;5.660;2024-01-10T15:06:07;0.30;99.90
75321;DHT22;68337;52.196;5.660;2024-01-10T15:08:34;0.30;99.90
75321;DHT22;68337;52.196;5.660;2024-01-10T15:11:01;0.30;99.90
75321;DHT22;68337;52.196;5.660;2024-01-10T15:13:27;0.20;99.90
75321;DHT22;68337;52.196;5.660;2024-01-10T15:15:52;0.20;99.90
75321;DHT22;68337;52.196;5.660;2024-01-10T15:18:18;0.10;99.90
75321;DHT22;68337;52.196;5.660;2024-01-10T15:20:47;0.10;99.90
75321;DHT22;68337;52.196;5.660;2024-01-10T15:23:13;0.00;99.90
75321;DHT22;68337;52.196;5.660;2024-01-10T15:25:41;0.10;99.90
75321;DHT22;68337;52.196;5.660;2024-01-10T15:28:08;0.10;99.90
75321;DHT22;68337;52.196;5.660;2024-01-10T15:30:34;0.10;99.90
75321;DHT22;68337;52.196;5.660;2024-01-10T15:33:01;-0.10;99.90
75321;DHT22;68337;52.196;5.660;2024-01-10T15:35:27;-0.10;99.90
75321;DHT22;68337;52.196;5.660;2024-01-10T15:37:53;-0.20;99.90
75321;DHT22;68337;52.196;5.660;2024-01-10T15:40:19;-0.20;99.90
75321;DHT22;68337;52.196;5.660;2024-01-10T15:42:50;-0.10;99.90
75321;DHT22;68337;52.196;5.660;2024-01-10T15:45:17;-0.20;99.90